sensor_id;sensor_type;location;lat;lon;timestamp;pressure;altitude;pressure_sealevel;temperature;humidity
7050;BME280;22263;52.260;10.548;2023-08-08T00:00:26;100116.97;;;13.60;100.00
7050;BME280;22263;52.260;10.548;2023-08-08T00:02:56;100109.81;;;13.59;100.00
7050;BME280;22263;52.260;10.548;2023-08-08T00:05:26;100109.41;;;13.61;100.00
7050;BME280;22263;52.260;10.548;2023-08-08T00:07:56;100112.19;;;13.61;100.00
7050;BME280;22263;52.260;10.548;2023-08-08T00:10:26;100104.66;;;13.58;100.00
7050;BME280;22263;52.260;10.548;2023-08-08T00:12:55;100107.84;;;13.60;100.00
7050;BME280;22263;52.260;10.548;2023-08-08T00:15:28;100102.34;;;13.49;100.00
7050;BME280;22263;52.260;10.548;2023-08-08T00:17:58;100100.00;;;13.44;100.00
7050;BME280;22263;52.260;10.548;2023-08-08T00:20:27;100107.53;;;13.43;100.00
7050;BME280;22263;52.260;10.548;2023-08-08T00:22:57;100106.69;;;13.53;100.00
7050;BME280;22263;52.260;10.548;2023-08-08T00:25:27;100104.28;;;13.56;100.00
7050;BME280;22263;52.260;10.548;2023-08-08T00:27:57;100107.09;;;13.52;100.00
7050;BME280;22263;52.260;10.548;2023-08-08T00:30:29;100097.22;;;13.47;100.00
7050;BME280;22263;52.260;10.548;2023-08-08T00:32:59;100096.03;;;13.45;100.00
7050;BME280;22263;52.260;10.548;2023-08-08T00:35:29;100104.69;;;13.54;100.00
7050;BME280;22263;52.260;10.548;2023-08-08T00:37:59;100097.59;;;13.49;100.00
7050;BME280;22263;52.260;10.548;2023-08-08T00:40:29;100092.88;;;13.39;100.00
7050;BME280;22263;52.260;10.548;2023-08-08T00:42:58;100088.09;;;13.47;100.00
7050;BME280;22263;52.260;10.548;2023-08-08T00:45:32;100089.72;;;13.41;100.00
7050;BME280;22263;52.260;10.548;2023-08-08T00:48:02;100080.19;;;13.42;100.00
7050;BME280;22263;52.260;10.548;2023-08-08T00:50:33;100076.69;;;13.31;100.00
7050;BME280;22263;52.260;10.548;2023-08-08T00:53:04;100085.44;;;13.26;100.00
7050;BME280;22263;52.260;10.548;2023-08-08T00:55:35;100088.66;;;13.21;100.00
7050;BME280;22263;52.260;10.548;2023-08-08T00:58:05;100089.03;;;13.23;100.00
7050;BME280;22263;52.260;10.548;2023-08-08T01:00:38;100087.09;;;13.16;100.00
7050;BME280;22263;52.260;10.548;2023-08-08T01:03:08;100092.22;;;13.21;100.00
7050;BME280;22263;52.260;10.548;2023-08-08T01:05:42;100089.88;;;13.16;100.00
7050;BME280;22263;52.260;10.548;2023-08-08T01:08:16;100092.25;;;13.18;100.00
7050;BME280;22263;52.260;10.548;2023-08-08T01:10:46;100089.44;;;13.21;100.00
7050;BME280;22263;52.260;10.548;2023-08-08T01:13:19;100083.13;;;13.17;100.00
7050;BME280;22263;52.260;10.548;2023-08-08T01:15:55;100081.13;;;13.18;100.00
7050;BME280;22263;52.260;10.548;2023-08-08T01:18:27;100073.97;;;13.20;100.00
7050;BME280;22263;52.260;10.548;2023-08-08T01:20:57;100071.63;;;13.19;100.00
7050;BME280;22263;52.260;10.548;2023-08-08T01:23:30;100073.19;;;13.20;100.00
7050;BME280;22263;52.260;10.548;2023-08-08T01:26:07;100064.47;;;13.14;100.00
7050;BME280;22263;52.260;10.548;2023-08-08T01:28:37;100073.19;;;13.23;100.00
7050;BME280;22263;52.260;10.548;2023-08-08T01:31:07;100068.47;;;13.13;100.00
7050;BME280;22263;52.260;10.548;2023-08-08T01:33:38;100064.13;;;13.08;100.00
7050;BME280;22263;52.260;10.548;2023-08-08T01:36:13;100066.06;;;13.15;100.00
7050;BME280;22263;52.260;10.548;2023-08-08T01:38:46;100059.72;;;13.15;100.00
7050;BME280;22263;52.260;10.548;2023-08-08T01:41:21;100066.84;;;13.19;100.00
7050;BME280;22263;52.260;10.548;2023-08-08T01:43:53;100061.31;;;13.16;100.00
7050;BME280;22263;52.260;10.548;2023-08-08T01:46:24;100054.16;;;13.15;100.00
7050;BME280;22263;52.260;10.548;2023-08-08T01:48:57;100048.94;;;13.24;100.00
7050;BME280;22263;52.260;10.548;2023-08-08T01:51:27;100044.59;;;13.26;100.00
7050;BME280;22263;52.260;10.548;2023-08-08T01:53:57;100041.41;;;13.28;100.00
7050;BME280;22263;52.260;10.548;2023-08-08T01:56:29;100042.97;;;13.32;100.00
7050;BME280;22263;52.260;10.548;2023-08-08T01:59:00;100042.09;;;13.39;100.00
7050;BME280;22263;52.260;10.548;2023-08-08T02:01:30;100038.56;;;13.35;100.00
7050;BME280;22263;52.260;10.548;2023-08-08T02:04:00;100037.38;;;13.36;100.00
7050;BME280;22263;52.260;10.548;2023-08-08T02:06:29;100035.00;;;13.38;100.00
7050;BME280;22263;52.260;10.548;2023-08-08T02:09:02;100031.78;;;13.39;100.00
7050;BME280;22263;52.260;10.548;2023-08-08T02:11:37;100030.94;;;13.46;100.00
7050;BME280;22263;52.260;10.548;2023-08-08T02:14:06;100028.56;;;13.44;100.00
7050;BME280;22263;52.260;10.548;2023-08-08T02:16:36;100017.47;;;13.44;100.00
7050;BME280;22263;52.260;10.548;2023-08-08T02:19:06;100008.72;;;13.46;100.00
7050;BME280;22263;52.260;10.548;2023-08-08T02:21:36;100014.72;;;13.41;100.00
7050;BME280;22263;52.260;10.548;2023-08-08T02:24:06;100010.66;;;13.49;100.00
7050;BME280;22263;52.260;10.548;2023-08-08T02:26:38;100024.56;;;13.49;100.00
7050;BME280;22263;52.260;10.548;2023-08-08T02:29:08;100021.38;;;13.50;100.00
7050;BME280;22263;52.260;10.548;2023-08-08T02:31:37;100022.22;;;13.47;100.00
7050;BME280;22263;52.260;10.548;2023-08-08T02:34:07;100026.91;;;13.54;100.00
7050;BME280;22263;52.260;10.548;2023-08-08T02:36:37;100012.16;;;13.61;100.00
7050;BME280;22263;52.260;10.548;2023-08-08T02:39:07;100009.75;;;13.63;100.00
7050;BME280;22263;52.260;10.548;2023-08-08T02:41:39;100008.19;;;13.62;100.00
7050;BME280;22263;52.260;10.548;2023-08-08T02:44:10;100011.72;;;13.62;100.00
7050;BME280;22263;52.260;10.548;2023-08-08T02:46:39;100018.91;;;13.60;100.00
7050;BME280;22263;52.260;10.548;2023-08-08T02:49:09;100019.00;;;13.49;100.00
7050;BME280;22263;52.260;10.548;2023-08-08T02:51:39;100011.41;;;13.57;100.00
7050;BME280;22263;52.260;10.548;2023-08-08T02:54:09;100006.66;;;13.57;100.00
7050;BME280;22263;52.260;10.548;2023-08-08T02:56:44;100020.56;;;13.53;100.00
7050;BME280;22263;52.260;10.548;2023-08-08T02:59:14;100025.34;;;13.49;100.00
7050;BME280;22263;52.260;10.548;2023-08-08T03:01:44;100022.03;;;13.65;100.00
7050;BME280;22263;52.260;10.548;2023-08-08T03:04:17;100008.97;;;13.62;100.00
7050;BME280;22263;52.260;10.548;2023-08-08T03:06:47;100001.38;;;13.70;100.00
7050;BME280;22263;52.260;10.548;2023-08-08T03:09:16;100007.81;;;13.60;100.00
7050;BME280;22263;52.260;10.548;2023-08-08T03:11:49;99997.44;;;13.64;100.00
7050;BME280;22263;52.260;10.548;2023-08-08T03:14:19;100012.06;;;13.71;100.00
7050;BME280;22263;52.260;10.548;2023-08-08T03:16:51;99995.06;;;13.62;100.00
7050;BME280;22263;52.260;10.548;2023-08-08T03:19:22;100004.63;;;13.58;100.00
7050;BME280;22263;52.260;10.548;2023-08-08T03:21:52;100008.63;;;13.57;100.00
7050;BME280;22263;52.260;10.548;2023-08-08T03:24:23;100004.63;;;13.61;100.00
7050;BME280;22263;52.260;10.548;2023-08-08T03:26:55;100012.13;;;13.64;100.00
7050;BME280;22263;52.260;10.548;2023-08-08T03:29:25;100006.91;;;13.70;100.00
7050;BME280;22263;52.260;10.548;2023-08-08T03:31:57;100002.22;;;13.63;100.00
7050;BME280;22263;52.260;10.548;2023-08-08T03:34:30;99992.19;;;13.73;100.00
7050;BME280;22263;52.260;10.548;2023-08-08T03:37:01;99988.66;;;13.69;100.00
7050;BME280;22263;52.260;10.548;2023-08-08T03:39:32;99994.22;;;13.69;100.00
7050;BME280;22263;52.260;10.548;2023-08-08T03:42:05;99992.63;;;13.71;100.00
7050;BME280;22263;52.260;10.548;2023-08-08T03:44:35;100000.16;;;13.71;100.00
7050;BME280;22263;52.260;10.548;2023-08-08T03:47:05;99989.41;;;13.76;100.00
7050;BME280;22263;52.260;10.548;2023-08-08T03:49:46;99982.16;;;13.86;100.00
7050;BME280;22263;52.260;10.548;2023-08-08T03:52:16;99987.31;;;13.84;100.00
7050;BME280;22263;52.260;10.548;2023-08-08T03:54:46;99979.38;;;13.86;100.00
7050;BME280;22263;52.260;10.548;2023-08-08T03:57:19;99983.84;;;13.76;100.00
7050;BME280;22263;52.260;10.548;2023-08-08T03:59:52;99986.97;;;13.78;100.00
7050;BME280;22263;52.260;10.548;2023-08-08T04:02:22;99985.88;;;13.69;100.00
7050;BME280;22263;52.260;10.548;2023-08-08T04:04:52;99985.00;;;13.79;100.00
7050;BME280;22263;52.260;10.548;2023-08-08T04:07:22;99992.03;;;13.90;100.00
7050;BME280;22263;52.260;10.548;2023-08-08T04:09:51;99989.16;;;13.97;100.00
7050;BME280;22263;52.260;10.548;2023-08-08T04:12:24;99996.25;;;14.02;100.00
7050;BME280;22263;52.260;10.548;2023-08-08T04:14:54;99991.09;;;14.04;100.00
7050;BME280;22263;52.260;10.548;2023-08-08T04:17:24;99986.63;;;14.10;100.00
7050;BME280;22263;52.260;10.548;2023-08-08T04:19:53;99983.84;;;14.10;100.00
7050;BME280;22263;52.260;10.548;2023-08-08T04:22:23;99984.16;;;14.19;100.00
7050;BME280;22263;52.260;10.548;2023-08-08T04:24:53;99986.47;;;14.24;100.00
7050;BME280;22263;52.260;10.548;2023-08-08T04:27:25;99986.38;;;14.31;100.00
7050;BME280;22263;52.260;10.548;2023-08-08T04:29:56;99976.88;;;14.29;100.00
7050;BME280;22263;52.260;10.548;2023-08-08T04:32:25;99972.84;;;14.33;100.00
7050;BME280;22263;52.260;10.548;2023-08-08T04:34:55;99965.72;;;14.32;100.00
7050;BME280;22263;52.260;10.548;2023-08-08T04:37:25;99973.72;;;14.27;100.00
7050;BME280;22263;52.260;10.548;2023-08-08T04:39:55;99971.41;;;14.22;100.00
7050;BME280;22263;52.260;10.548;2023-08-08T04:42:27;99973.63;;;14.37;100.00
7050;BME280;22263;52.260;10.548;2023-08-08T04:44:57;99975.31;;;14.28;100.00
7050;BME280;22263;52.260;10.548;2023-08-08T04:47:27;99971.53;;;14.45;100.00
7050;BME280;22263;52.260;10.548;2023-08-08T04:49:57;99970.38;;;14.43;100.00
7050;BME280;22263;52.260;10.548;2023-08-08T04:52:27;99966.81;;;14.42;100.00
7050;BME280;22263;52.260;10.548;2023-08-08T04:54:56;99962.84;;;14.43;100.00
7050;BME280;22263;52.260;10.548;2023-08-08T04:57:29;99954.38;;;14.50;100.00
7050;BME280;22263;52.260;10.548;2023-08-08T04:59:59;99956.75;;;14.52;100.00
7050;BME280;22263;52.260;10.548;2023-08-08T05:02:32;99951.53;;;14.54;100.00
7050;BME280;22263;52.260;10.548;2023-08-08T05:05:01;99948.41;;;14.52;100.00
7050;BME280;22263;52.260;10.548;2023-08-08T05:07:31;99955.03;;;14.61;100.00
7050;BME280;22263;52.260;10.548;2023-08-08T05:10:04;99950.78;;;14.50;100.00
7050;BME280;22263;52.260;10.548;2023-08-08T05:12:37;99950.34;;;14.55;100.00
7050;BME280;22263;52.260;10.548;2023-08-08T05:15:07;99956.59;;;14.62;100.00
7050;BME280;22263;52.260;10.548;2023-08-08T05:17:37;99952.56;;;14.67;100.00
7050;BME280;22263;52.260;10.548;2023-08-08T05:20:08;99946.75;;;14.54;100.00
7050;BME280;22263;52.260;10.548;2023-08-08T05:22:39;99945.47;;;14.62;100.00
7050;BME280;22263;52.260;10.548;2023-08-08T05:25:09;99943.75;;;14.72;100.00
7050;BME280;22263;52.260;10.548;2023-08-08T05:27:41;99952.09;;;14.72;100.00
7050;BME280;22263;52.260;10.548;2023-08-08T05:30:11;99944.50;;;14.72;100.00
7050;BME280;22263;52.260;10.548;2023-08-08T05:32:41;99949.19;;;14.79;100.00
7050;BME280;22263;52.260;10.548;2023-08-08T05:35:11;99955.16;;;14.77;100.00
7050;BME280;22263;52.260;10.548;2023-08-08T05:37:41;99944.81;;;14.78;100.00
7050;BME280;22263;52.260;10.548;2023-08-08T05:40:11;99943.69;;;14.75;100.00
7050;BME280;22263;52.260;10.548;2023-08-08T05:42:43;99947.50;;;14.85;100.00
7050;BME280;22263;52.260;10.548;2023-08-08T05:45:13;99944.50;;;14.99;100.00
7050;BME280;22263;52.260;10.548;2023-08-08T05:47:43;99948.50;;;14.98;100.00
7050;BME280;22263;52.260;10.548;2023-08-08T05:50:13;99943.97;;;15.08;100.00
7050;BME280;22263;52.260;10.548;2023-08-08T05:52:43;99947.16;;;15.06;100.00
7050;BME280;22263;52.260;10.548;2023-08-08T05:55:13;99949.84;;;15.13;100.00
7050;BME280;22263;52.260;10.548;2023-08-08T05:57:45;99944.22;;;15.17;100.00
7050;BME280;22263;52.260;10.548;2023-08-08T06:00:16;99942.13;;;15.24;100.00
7050;BME280;22263;52.260;10.548;2023-08-08T06:02:46;99939.69;;;15.26;100.00
7050;BME280;22263;52.260;10.548;2023-08-08T06:05:16;99961.19;;;15.26;100.00
7050;BME280;22263;52.260;10.548;2023-08-08T06:07:46;99954.06;;;15.25;100.00
7050;BME280;22263;52.260;10.548;2023-08-08T06:10:16;99950.97;;;15.19;100.00
7050;BME280;22263;52.260;10.548;2023-08-08T06:12:48;99950.72;;;15.34;100.00
7050;BME280;22263;52.260;10.548;2023-08-08T06:15:18;99957.00;;;15.38;100.00
7050;BME280;22263;52.260;10.548;2023-08-08T06:17:48;99966.81;;;15.22;100.00
7050;BME280;22263;52.260;10.548;2023-08-08T06:20:18;99952.03;;;15.25;100.00
7050;BME280;22263;52.260;10.548;2023-08-08T06:22:48;99965.00;;;15.36;100.00
7050;BME280;22263;52.260;10.548;2023-08-08T06:25:19;99959.66;;;15.45;100.00
7050;BME280;22263;52.260;10.548;2023-08-08T06:27:51;99960.72;;;15.54;100.00
7050;BME280;22263;52.260;10.548;2023-08-08T06:30:21;99956.25;;;15.60;100.00
7050;BME280;22263;52.260;10.548;2023-08-08T06:32:51;99941.41;;;15.67;100.00
7050;BME280;22263;52.260;10.548;2023-08-08T06:35:21;99952.84;;;15.73;100.00
7050;BME280;22263;52.260;10.548;2023-08-08T06:37:51;99957.41;;;15.83;100.00
7050;BME280;22263;52.260;10.548;2023-08-08T06:40:21;99961.78;;;15.84;100.00
7050;BME280;22263;52.260;10.548;2023-08-08T06:42:53;99951.72;;;15.90;100.00
7050;BME280;22263;52.260;10.548;2023-08-08T06:45:23;99953.34;;;16.07;100.00
7050;BME280;22263;52.260;10.548;2023-08-08T06:47:53;99953.59;;;16.16;100.00
7050;BME280;22263;52.260;10.548;2023-08-08T06:50:22;99951.22;;;16.14;100.00
7050;BME280;22263;52.260;10.548;2023-08-08T06:52:53;99950.84;;;16.12;100.00
7050;BME280;22263;52.260;10.548;2023-08-08T06:55:23;99960.59;;;16.24;100.00
7050;BME280;22263;52.260;10.548;2023-08-08T06:57:55;99953.84;;;16.41;100.00
7050;BME280;22263;52.260;10.548;2023-08-08T07:00:25;99949.31;;;16.47;100.00
7050;BME280;22263;52.260;10.548;2023-08-08T07:02:56;99943.03;;;16.79;100.00
7050;BME280;22263;52.260;10.548;2023-08-08T07:05:28;99937.59;;;16.92;100.00
7050;BME280;22263;52.260;10.548;2023-08-08T07:07:58;99930.44;;;17.07;100.00
7050;BME280;22263;52.260;10.548;2023-08-08T07:10:28;99938.75;;;17.72;100.00
7050;BME280;22263;52.260;10.548;2023-08-08T07:13:00;99935.19;;;17.71;100.00
7050;BME280;22263;52.260;10.548;2023-08-08T07:15:30;99933.78;;;18.21;100.00
7050;BME280;22263;52.260;10.548;2023-08-08T07:18:00;99926.63;;;18.20;100.00
7050;BME280;22263;52.260;10.548;2023-08-08T07:20:30;99925.84;;;18.19;100.00
7050;BME280;22263;52.260;10.548;2023-08-08T07:23:00;99918.31;;;18.58;100.00
7050;BME280;22263;52.260;10.548;2023-08-08T07:25:30;99927.97;;;18.28;100.00
7050;BME280;22263;52.260;10.548;2023-08-08T07:28:02;99923.59;;;18.14;100.00
7050;BME280;22263;52.260;10.548;2023-08-08T07:30:32;99926.16;;;18.63;100.00
7050;BME280;22263;52.260;10.548;2023-08-08T07:33:02;99922.78;;;18.14;100.00
7050;BME280;22263;52.260;10.548;2023-08-08T07:35:32;99911.25;;;18.79;100.00
7050;BME280;22263;52.260;10.548;2023-08-08T07:38:03;99914.06;;;18.12;100.00
7050;BME280;22263;52.260;10.548;2023-08-08T07:40:33;99917.44;;;17.78;100.00
7050;BME280;22263;52.260;10.548;2023-08-08T07:43:05;99919.19;;;18.13;100.00
7050;BME280;22263;52.260;10.548;2023-08-08T07:45:35;99899.78;;;18.35;100.00
7050;BME280;22263;52.260;10.548;2023-08-08T07:48:05;99901.94;;;18.56;100.00
7050;BME280;22263;52.260;10.548;2023-08-08T07:50:35;99905.00;;;18.20;100.00
7050;BME280;22263;52.260;10.548;2023-08-08T07:53:04;99902.38;;;18.01;100.00
7050;BME280;22263;52.260;10.548;2023-08-08T07:55:34;99905.84;;;17.92;100.00
7050;BME280;22263;52.260;10.548;2023-08-08T07:58:07;99904.50;;;17.97;100.00
7050;BME280;22263;52.260;10.548;2023-08-08T08:00:36;99905.63;;;17.99;100.00
7050;BME280;22263;52.260;10.548;2023-08-08T08:03:08;99902.66;;;18.19;100.00
7050;BME280;22263;52.260;10.548;2023-08-08T08:05:37;99912.28;;;18.59;100.00
7050;BME280;22263;52.260;10.548;2023-08-08T08:08:07;99888.81;;;18.91;100.00
7050;BME280;22263;52.260;10.548;2023-08-08T08:10:37;99903.81;;;19.10;100.00
7050;BME280;22263;52.260;10.548;2023-08-08T08:13:12;99909.44;;;19.10;100.00
7050;BME280;22263;52.260;10.548;2023-08-08T08:15:43;99873.34;;;19.12;100.00
7050;BME280;22263;52.260;10.548;2023-08-08T08:18:12;99898.63;;;19.46;100.00
7050;BME280;22263;52.260;10.548;2023-08-08T08:20:45;99901.59;;;19.52;100.00
7050;BME280;22263;52.260;10.548;2023-08-08T08:23:15;99875.59;;;19.51;100.00
7050;BME280;22263;52.260;10.548;2023-08-08T08:25:45;99886.94;;;18.76;100.00
7050;BME280;22263;52.260;10.548;2023-08-08T08:28:18;99877.19;;;18.67;100.00
7050;BME280;22263;52.260;10.548;2023-08-08T08:30:47;99865.66;;;18.78;100.00
7050;BME280;22263;52.260;10.548;2023-08-08T08:33:17;99880.09;;;18.77;100.00
7050;BME280;22263;52.260;10.548;2023-08-08T08:35:47;99877.06;;;18.71;100.00
7050;BME280;22263;52.260;10.548;2023-08-08T08:38:17;99873.63;;;20.26;100.00
7050;BME280;22263;52.260;10.548;2023-08-08T08:40:47;99879.66;;;20.37;100.00
7050;BME280;22263;52.260;10.548;2023-08-08T08:43:20;99875.47;;;20.91;100.00
7050;BME280;22263;52.260;10.548;2023-08-08T08:45:52;99872.00;;;21.36;100.00
7050;BME280;22263;52.260;10.548;2023-08-08T08:48:22;99865.63;;;21.72;100.00
7050;BME280;22263;52.260;10.548;2023-08-08T08:50:52;99878.19;;;21.13;100.00
7050;BME280;22263;52.260;10.548;2023-08-08T08:53:22;99862.28;;;22.10;96.46
7050;BME280;22263;52.260;10.548;2023-08-08T08:55:52;99847.84;;;22.26;89.60
7050;BME280;22263;52.260;10.548;2023-08-08T08:58:27;99862.31;;;22.01;92.50
7050;BME280;22263;52.260;10.548;2023-08-08T09:00:58;99848.72;;;21.81;88.74
7050;BME280;22263;52.260;10.548;2023-08-08T09:03:28;99846.16;;;22.20;86.94
7050;BME280;22263;52.260;10.548;2023-08-08T09:05:58;99856.00;;;23.23;85.09
7050;BME280;22263;52.260;10.548;2023-08-08T09:08:29;99853.09;;;22.84;84.29
7050;BME280;22263;52.260;10.548;2023-08-08T09:10:58;99862.59;;;22.63;88.56
7050;BME280;22263;52.260;10.548;2023-08-08T09:13:36;99843.69;;;22.45;84.12
7050;BME280;22263;52.260;10.548;2023-08-08T09:16:07;99843.66;;;22.12;90.99
7050;BME280;22263;52.260;10.548;2023-08-08T09:18:39;99860.00;;;22.41;84.40
7050;BME280;22263;52.260;10.548;2023-08-08T09:21:09;99843.66;;;21.12;98.44
7050;BME280;22263;52.260;10.548;2023-08-08T09:23:39;99860.66;;;20.51;100.00
7050;BME280;22263;52.260;10.548;2023-08-08T09:26:13;99860.88;;;20.03;100.00
7050;BME280;22263;52.260;10.548;2023-08-08T09:28:45;99887.41;;;19.46;100.00
7050;BME280;22263;52.260;10.548;2023-08-08T09:31:16;99874.41;;;19.27;100.00
7050;BME280;22263;52.260;10.548;2023-08-08T09:33:46;99874.84;;;19.94;100.00
7050;BME280;22263;52.260;10.548;2023-08-08T09:36:18;99868.16;;;20.54;100.00
7050;BME280;22263;52.260;10.548;2023-08-08T09:38:48;99861.16;;;21.07;100.00
7050;BME280;22263;52.260;10.548;2023-08-08T09:41:18;99872.81;;;20.87;100.00
7050;BME280;22263;52.260;10.548;2023-08-08T09:43:52;99881.50;;;21.20;100.00
7050;BME280;22263;52.260;10.548;2023-08-08T09:46:23;99870.31;;;20.89;100.00
7050;BME280;22263;52.260;10.548;2023-08-08T09:48:53;99866.25;;;20.20;100.00
7050;BME280;22263;52.260;10.548;2023-08-08T09:51:25;99873.06;;;19.66;100.00
7050;BME280;22263;52.260;10.548;2023-08-08T09:53:56;99860.03;;;19.94;100.00
7050;BME280;22263;52.260;10.548;2023-08-08T09:56:26;99872.59;;;18.99;100.00
7050;BME280;22263;52.260;10.548;2023-08-08T09:59:00;99871.22;;;18.91;100.00
7050;BME280;22263;52.260;10.548;2023-08-08T10:01:31;99877.03;;;19.56;100.00
7050;BME280;22263;52.260;10.548;2023-08-08T10:04:03;99868.06;;;20.35;100.00
7050;BME280;22263;52.260;10.548;2023-08-08T10:06:33;99864.38;;;20.87;100.00
7050;BME280;22263;52.260;10.548;2023-08-08T10:09:03;99854.63;;;22.10;100.00
7050;BME280;22263;52.260;10.548;2023-08-08T10:11:33;99863.97;;;22.26;100.00
7050;BME280;22263;52.260;10.548;2023-08-08T10:14:06;99862.88;;;22.65;100.00
7050;BME280;22263;52.260;10.548;2023-08-08T10:16:38;99855.84;;;23.41;100.00
7050;BME280;22263;52.260;10.548;2023-08-08T10:19:11;99867.09;;;23.88;100.00
7050;BME280;22263;52.260;10.548;2023-08-08T10:21:43;99866.63;;;24.05;95.93
7050;BME280;22263;52.260;10.548;2023-08-08T10:24:13;99861.53;;;23.79;95.17
7050;BME280;22263;52.260;10.548;2023-08-08T10:26:54;99869.03;;;22.03;100.00
7050;BME280;22263;52.260;10.548;2023-08-08T10:29:28;99870.28;;;22.63;100.00
7050;BME280;22263;52.260;10.548;2023-08-08T10:31:59;99878.53;;;22.66;100.00
7050;BME280;22263;52.260;10.548;2023-08-08T10:34:37;99858.09;;;22.05;100.00
7050;BME280;22263;52.260;10.548;2023-08-08T10:37:10;99882.81;;;21.47;100.00
7050;BME280;22263;52.260;10.548;2023-08-08T10:39:50;99868.69;;;21.92;100.00
7050;BME280;22263;52.260;10.548;2023-08-08T10:42:23;99860.25;;;21.92;100.00
7050;BME280;22263;52.260;10.548;2023-08-08T10:44:57;99884.69;;;21.77;100.00
7050;BME280;22263;52.260;10.548;2023-08-08T10:47:31;99867.94;;;21.28;100.00
7050;BME280;22263;52.260;10.548;2023-08-08T10:50:04;99875.88;;;20.62;100.00
7050;BME280;22263;52.260;10.548;2023-08-08T10:52:38;99859.03;;;21.39;100.00
7050;BME280;22263;52.260;10.548;2023-08-08T10:55:18;99860.94;;;22.47;100.00
7050;BME280;22263;52.260;10.548;2023-08-08T10:57:55;99872.69;;;22.37;99.31
7050;BME280;22263;52.260;10.548;2023-08-08T11:00:30;99858.56;;;21.40;100.00
7050;BME280;22263;52.260;10.548;2023-08-08T11:03:02;99847.00;;;22.44;100.00
7050;BME280;22263;52.260;10.548;2023-08-08T11:05:33;99860.50;;;23.06;96.94
7050;BME280;22263;52.260;10.548;2023-08-08T11:08:06;99847.06;;;23.00;97.11
7050;BME280;22263;52.260;10.548;2023-08-08T11:10:37;99848.53;;;22.03;100.00
7050;BME280;22263;52.260;10.548;2023-08-08T11:13:08;99836.59;;;22.17;98.24
7050;BME280;22263;52.260;10.548;2023-08-08T11:15:41;99846.19;;;22.10;95.02
7050;BME280;22263;52.260;10.548;2023-08-08T11:18:11;99858.22;;;22.62;100.00
7050;BME280;22263;52.260;10.548;2023-08-08T11:20:43;99843.28;;;23.03;98.06
7050;BME280;22263;52.260;10.548;2023-08-08T11:23:13;99839.69;;;23.41;97.61
7050;BME280;22263;52.260;10.548;2023-08-08T11:25:44;99835.59;;;22.80;90.55
7050;BME280;22263;52.260;10.548;2023-08-08T11:28:34;99816.75;;;24.02;86.94
7050;BME280;22263;52.260;10.548;2023-08-08T11:31:07;99834.56;;;23.40;84.96
7050;BME280;22263;52.260;10.548;2023-08-08T11:33:38;99842.28;;;23.16;86.45
7050;BME280;22263;52.260;10.548;2023-08-08T11:36:08;99844.53;;;23.26;84.03
7050;BME280;22263;52.260;10.548;2023-08-08T11:38:38;99830.91;;;22.77;92.66
7050;BME280;22263;52.260;10.548;2023-08-08T11:41:10;99848.81;;;22.56;99.36
7050;BME280;22263;52.260;10.548;2023-08-08T11:43:40;99838.78;;;23.21;95.31
7050;BME280;22263;52.260;10.548;2023-08-08T11:46:14;99841.19;;;22.47;97.85
7050;BME280;22263;52.260;10.548;2023-08-08T11:48:46;99847.75;;;22.53;100.00
7050;BME280;22263;52.260;10.548;2023-08-08T11:51:17;99852.63;;;21.29;100.00
7050;BME280;22263;52.260;10.548;2023-08-08T11:53:51;99843.03;;;21.08;100.00
7050;BME280;22263;52.260;10.548;2023-08-08T11:56:21;99869.88;;;19.98;100.00
7050;BME280;22263;52.260;10.548;2023-08-08T11:58:51;99840.59;;;19.43;100.00
7050;BME280;22263;52.260;10.548;2023-08-08T12:01:25;99871.69;;;19.36;100.00
7050;BME280;22263;52.260;10.548;2023-08-08T12:03:56;99861.09;;;19.53;100.00
7050;BME280;22263;52.260;10.548;2023-08-08T12:06:28;99873.13;;;19.97;100.00
7050;BME280;22263;52.260;10.548;2023-08-08T12:09:00;99853.22;;;20.66;100.00
7050;BME280;22263;52.260;10.548;2023-08-08T12:11:34;99836.16;;;21.00;100.00
7050;BME280;22263;52.260;10.548;2023-08-08T12:14:06;99835.19;;;22.22;98.02
7050;BME280;22263;52.260;10.548;2023-08-08T12:16:39;99833.31;;;22.93;82.36
7050;BME280;22263;52.260;10.548;2023-08-08T12:19:10;99816.06;;;23.77;69.78
7050;BME280;22263;52.260;10.548;2023-08-08T12:21:44;99812.94;;;23.37;65.28
7050;BME280;22263;52.260;10.548;2023-08-08T12:24:14;99806.41;;;23.84;62.35
7050;BME280;22263;52.260;10.548;2023-08-08T12:26:44;99804.66;;;23.86;61.83
7050;BME280;22263;52.260;10.548;2023-08-08T12:29:14;99809.72;;;23.06;63.82
7050;BME280;22263;52.260;10.548;2023-08-08T12:31:47;99817.63;;;23.40;67.27
7050;BME280;22263;52.260;10.548;2023-08-08T12:34:16;99807.84;;;23.65;65.66
7050;BME280;22263;52.260;10.548;2023-08-08T12:36:46;99823.13;;;22.96;64.22
7050;BME280;22263;52.260;10.548;2023-08-08T12:39:16;99815.38;;;22.40;72.63
7050;BME280;22263;52.260;10.548;2023-08-08T12:41:46;99810.38;;;22.44;72.46
7050;BME280;22263;52.260;10.548;2023-08-08T12:44:16;99830.44;;;22.37;74.06
7050;BME280;22263;52.260;10.548;2023-08-08T12:46:48;99832.16;;;21.47;73.55
7050;BME280;22263;52.260;10.548;2023-08-08T12:49:18;99823.03;;;21.79;74.42
7050;BME280;22263;52.260;10.548;2023-08-08T12:51:50;99810.88;;;21.82;77.04
7050;BME280;22263;52.260;10.548;2023-08-08T12:54:20;99814.06;;;23.16;67.71
7050;BME280;22263;52.260;10.548;2023-08-08T12:56:49;99819.94;;;23.03;65.04
7050;BME280;22263;52.260;10.548;2023-08-08T12:59:19;99831.81;;;23.55;63.23
7050;BME280;22263;52.260;10.548;2023-08-08T13:01:51;99819.94;;;23.65;61.19
7050;BME280;22263;52.260;10.548;2023-08-08T13:04:22;99811.53;;;22.61;63.38
7050;BME280;22263;52.260;10.548;2023-08-08T13:06:52;99813.09;;;22.62;66.40